Overview Statistics Trail Chart Weather Telemetry Raw packets
 

This is the latest recevied weather packets stored in our database for station/object Aldingen. If no packets are shown the sender has not sent any weather packets the latest 10 day(s).

<< 1 2 3 4 >>
Time Temp. Humidity Pressure Rain* Wind** Luminosity Snow
1788598930 16.67° C 89% 1020 hPa 2.03 mm - - -
1788597131 15.56° C 91% 1019.8 hPa 2.03 mm - - -
1788595330 15° C 89% 1019.7 hPa 1.52 mm - - -
1788593530 14.44° C 89% 1019.6 hPa 1.52 mm - - -
1788591730 16.11° C 78% 1019.3 hPa 0 mm - - -
1788589930 15.56° C 78% 1018.9 hPa 0 mm - - -
1788588130 15.56° C 81% 1018.8 hPa 0 mm - - -
1788586329 15.56° C 89% 1018.5 hPa 0 mm - - -
1788584531 15.56° C 89% 1018.1 hPa 0 mm - - -
1788582730 16.67° C 86% 1017.5 hPa 0 mm - - -
1788580929 17.78° C 80% 1017.1 hPa 0 mm - - -
1788579129 18.33° C 79% 1017.2 hPa 0 mm - - -
1788577329 18.33° C 79% 1016.7 hPa 0 mm - - -
1788575529 18.33° C 78% 1016.6 hPa 0 mm - - -
1788573729 18.33° C 77% 1016.5 hPa 0 mm - - -
1788571929 18.89° C 73% 1016.4 hPa 0 mm - - -
1788570129 18.33° C 72% 1016.3 hPa 0 mm - - -
1788568331 19.44° C 69% 1016.1 hPa 0 mm - - -
1788566531 17.78° C 75% 1015.9 hPa 0 mm - - -
1788564731 18.89° C 72% 1015.7 hPa 0 mm - - -
1788562931 20.56° C 65% 1015.6 hPa 0 mm - - -
1788561131 22.22° C 60% 1015.3 hPa 0 mm - - -
1788559331 22.78° C 58% 1015.2 hPa 0 mm - - -
1788557531 22.78° C 59% 1015.1 hPa 0 mm - - -
1788555731 22.78° C 59% 1015.1 hPa 0 mm - - -

* Rain since midnight (hover to see other rain measurements)
** Current wind speed in m/s (hover to see current wind gust speed)